Austin Straubel International Airport
KGRB : rendu visible

Aérodrome :











RETROUVEZ-NOUS SUR...

 
LOGIN :

S'inscrire | Disclaimer

   EN    FR    IT 

 









Légende :    VFR   VFR Marginal   IFR   IFR Intensif   IFR Très Intensif
Visi : 
Plafond : 
>= 8 km
>= 3000ft
5 à 8 km
1000 à 3000 ft
1500m à 5 km
500 à 1000 ft
800 à 1500m
200 à 500 ft
< 800m
< 200 ft
Symboles :   Orages  Brouillard  Fortes neiges  Fortes précipitations  Vent > 20 kt






- Altitude de l'aérodrome : 695 ft
- Code IATA : GRB


KGRB - Austin Straubel International

DERNIER METAR :
  • 212153Z 21010KT 10SM CLR M06/M11 A3033 RMK AO2 SLP287 T10561111

METARs EXPIRÉS :
  • 212053Z AUTO 21011KT 10SM CLR M05/M11 A3035 RMK AO2 SLP291 T10501111 56028
  • 211953Z 22009G19KT 10SM CLR M06/M12 A3037 RMK AO2 SLP300 T10561117

TAF KGRB
Valide du 21 à 18h jusqu'au 22 à 18h UTC


211723Z 2118/2218 23010G18KT P6SM SKC
FM220200 21011G18KT P6SM SCT250 WS015/23045KT
FM221400 21014G21KT P6SM OVC100
FM221700 21013G21KT P6SM OVC060



MET'MAP, la Météo Aéronautique d'un coup d'oeil ! - Copyright ORBIFLY Décembre 2007 - Disclaimer

ORBIFLY MET'MAP TEAM :

Programmation & Développement : Alexandra Zaïnal
Sur une idée originale de : Baudouin d'Aumeries
Assistance à la programmation : Marc-Olivier Méhu
Soutien technique & logistique : Manuel Goepfert

Contact : metmap@orbifly.com




SOURCES & CREDITS :

   NOAA       Earth
Advisory